createdAt,value
2023-06-10T00:01:15.132Z,63.89
2023-06-10T00:04:17.931Z,63.52
2023-06-10T00:07:20.156Z,63.57
2023-06-10T00:10:22.469Z,63.51
2023-06-10T00:13:25.096Z,63.78
2023-06-10T00:16:27.454Z,63.53
2023-06-10T00:19:32.809Z,63.36
2023-06-10T00:22:34.972Z,63.34
2023-06-10T00:25:37.239Z,63.58
2023-06-10T00:28:39.415Z,63.57
2023-06-10T00:31:41.758Z,63.47
2023-06-10T00:34:43.984Z,63.51
2023-06-10T00:37:46.466Z,63.26
2023-06-10T00:40:48.772Z,63.42
2023-06-10T00:43:53.998Z,63.37
2023-06-10T00:46:57.118Z,63.30
2023-06-10T00:49:59.624Z,63.37
2023-06-10T00:53:01.856Z,63.22
2023-06-10T00:56:04.742Z,63.29
2023-06-10T00:59:07.684Z,63.24
2023-06-10T01:02:10.437Z,63.45
2023-06-10T01:05:13.220Z,63.22
2023-06-10T01:08:47.771Z,63.65
2023-06-10T01:11:59.572Z,63.68
2023-06-10T01:15:03.623Z,63.76
2023-06-10T01:18:10.606Z,63.58
2023-06-10T01:21:25.758Z,63.61
2023-06-10T01:24:29.429Z,63.76
2023-06-10T01:27:34.652Z,63.94
2023-06-10T01:30:57.516Z,63.85
2023-06-10T01:33:59.845Z,63.64
2023-06-10T01:37:02.924Z,63.83
2023-06-10T01:40:07.205Z,64.10
2023-06-10T01:43:10.979Z,64.08
2023-06-10T01:46:13.352Z,64.21
2023-06-10T01:49:15.850Z,64.23
2023-06-10T01:52:19.798Z,64.06
2023-06-10T01:55:22.031Z,64.08
2023-06-10T01:58:24.242Z,63.83
2023-06-10T02:01:27.142Z,64.02
2023-06-10T02:04:29.303Z,63.90
2023-06-10T02:07:31.498Z,64.07
2023-06-10T02:10:33.687Z,63.79
2023-06-10T02:13:36.002Z,63.76
2023-06-10T02:16:38.273Z,63.70
2023-06-10T02:19:43.887Z,63.88
2023-06-10T02:22:46.190Z,63.72
2023-06-10T02:25:49.303Z,63.74
2023-06-10T02:28:51.550Z,63.93
2023-06-10T02:31:54.009Z,63.68
2023-06-10T02:34:56.564Z,63.85
2023-06-10T02:38:00.768Z,63.87
2023-06-10T02:41:04.688Z,63.72
2023-06-10T02:44:07.580Z,64.01
2023-06-10T02:47:09.821Z,64.10
2023-06-10T02:50:13.628Z,63.91
2023-06-10T02:53:26.787Z,64.03
2023-06-10T02:56:37.477Z,64.41
2023-06-10T02:59:42.079Z,64.56
2023-06-10T03:02:46.964Z,64.45
2023-06-10T03:05:50.289Z,64.39
2023-06-10T03:08:54.793Z,64.66
2023-06-10T03:11:57.164Z,64.44
2023-06-10T03:14:59.666Z,64.20
2023-06-10T03:18:03.957Z,64.45
2023-06-10T03:21:06.318Z,64.30
2023-06-10T03:24:08.790Z,64.17
2023-06-10T03:27:12.061Z,64.25
2023-06-10T03:30:16.663Z,63.91
2023-06-10T03:33:21.067Z,64.22
2023-06-10T03:36:23.270Z,63.90
2023-06-10T03:39:25.664Z,63.95
2023-06-10T03:42:28.456Z,63.96
2023-06-10T03:45:31.165Z,63.68
2023-06-10T03:48:34.178Z,64.04
2023-06-10T03:51:37.614Z,64.28
2023-06-10T03:54:39.832Z,64.70
2023-06-10T03:57:42.144Z,64.47
2023-06-10T04:00:44.350Z,64.50
2023-06-10T04:03:46.519Z,64.13
2023-06-10T04:06:49.852Z,63.82
2023-06-10T04:09:52.103Z,63.71
2023-06-10T04:12:54.995Z,63.70
2023-06-10T04:15:59.051Z,63.30
2023-06-10T04:19:01.845Z,63.44
2023-06-10T04:22:05.091Z,63.49
2023-06-10T04:25:10.818Z,63.44
2023-06-10T04:28:14.844Z,63.27
2023-06-10T04:31:18.409Z,63.22
2023-06-10T04:34:20.789Z,63.38
2023-06-10T04:37:23.050Z,63.38
2023-06-10T04:40:25.910Z,63.49
2023-06-10T04:43:29.487Z,63.22
2023-06-10T04:46:33.168Z,63.02
2023-06-10T04:49:36.964Z,63.14
2023-06-10T04:52:39.144Z,63.01
2023-06-10T04:55:41.787Z,62.81
2023-06-10T04:58:44.039Z,62.92
2023-06-10T05:01:46.411Z,62.80
2023-06-10T05:04:48.641Z,62.51
2023-06-10T05:07:50.910Z,62.47
2023-06-10T05:10:53.356Z,62.38
2023-06-10T05:13:55.530Z,62.16
2023-06-10T05:16:58.117Z,62.27
2023-06-10T05:20:00.609Z,62.43
2023-06-10T05:23:02.750Z,62.16
2023-06-10T05:26:04.924Z,62.16
2023-06-10T05:29:07.169Z,62.10
2023-06-10T05:32:10.035Z,61.95
2023-06-10T05:35:12.611Z,61.68
2023-06-10T05:38:15.235Z,61.89
2023-06-10T05:41:17.446Z,61.84
2023-06-10T05:44:19.674Z,61.67
2023-06-10T05:47:21.883Z,61.36
2023-06-10T05:50:25.796Z,61.73
2023-06-10T05:53:27.983Z,61.36
2023-06-10T05:56:30.459Z,61.43
2023-06-10T05:59:32.768Z,61.59
2023-06-10T06:02:35.047Z,61.58
2023-06-10T06:05:38.542Z,61.45
2023-06-10T06:08:40.714Z,61.26
2023-06-10T06:11:42.920Z,61.40
2023-06-10T06:14:45.896Z,61.33
2023-06-10T06:17:48.191Z,60.82
2023-06-10T06:20:50.900Z,61.02
2023-06-10T06:23:53.237Z,60.89
2023-06-10T06:26:55.628Z,60.67
2023-06-10T06:29:57.897Z,60.76
2023-06-10T06:33:00.778Z,60.70
2023-06-10T06:36:03.098Z,60.89
2023-06-10T06:39:05.315Z,60.85
2023-06-10T06:42:08.344Z,60.79
2023-06-10T06:45:23.485Z,60.54
2023-06-10T06:48:25.828Z,60.64
2023-06-10T06:51:28.153Z,60.48
2023-06-10T06:54:31.691Z,60.74
2023-06-10T06:57:33.997Z,60.35
2023-06-10T07:00:36.223Z,60.15
2023-06-10T07:03:38.519Z,60.09
2023-06-10T07:06:40.863Z,59.89
2023-06-10T07:09:45.847Z,59.74
2023-06-10T07:12:48.053Z,59.70
2023-06-10T07:15:50.634Z,59.52
2023-06-10T07:18:53.945Z,59.18
2023-06-10T07:21:56.175Z,58.93
2023-06-10T07:24:59.000Z,58.85
2023-06-10T07:28:01.194Z,58.37
2023-06-10T07:31:03.449Z,58.37
2023-06-10T07:34:05.731Z,58.60
2023-06-10T07:37:07.988Z,58.84
2023-06-10T07:40:10.498Z,58.28
2023-06-10T07:43:12.712Z,58.13
2023-06-10T07:46:14.891Z,57.39
2023-06-10T07:49:17.072Z,57.64
2023-06-10T07:52:19.294Z,57.45
2023-06-10T07:55:21.590Z,57.04
2023-06-10T07:58:23.874Z,56.98
2023-06-10T08:01:26.069Z,56.83
2023-06-10T08:04:28.351Z,57.09
2023-06-10T08:07:31.955Z,56.45
2023-06-10T08:10:34.175Z,56.01
2023-06-10T08:13:36.375Z,55.83
2023-06-10T08:16:38.649Z,56.00
2023-06-10T08:19:40.817Z,55.97
2023-06-10T08:22:43.038Z,56.01
2023-06-10T08:25:45.308Z,55.07
2023-06-10T08:28:47.496Z,55.17
2023-06-10T08:31:49.822Z,55.32
2023-06-10T08:34:52.095Z,55.77
2023-06-10T08:37:54.367Z,54.92
2023-06-10T08:41:01.797Z,54.87
2023-06-10T08:44:27.936Z,55.09
2023-06-10T08:47:32.538Z,54.69
2023-06-10T08:50:40.028Z,54.66
2023-06-10T08:53:50.587Z,54.33
2023-06-10T08:56:54.699Z,54.32
2023-06-10T08:59:58.363Z,53.98
2023-06-10T09:03:04.580Z,53.74
2023-06-10T09:06:07.586Z,53.87
2023-06-10T09:09:09.907Z,53.20
2023-06-10T09:12:14.402Z,52.82
2023-06-10T09:15:18.322Z,53.02
2023-06-10T09:18:21.459Z,53.10
2023-06-10T09:21:24.202Z,52.97
2023-06-10T09:24:26.829Z,53.17
2023-06-10T09:27:33.147Z,53.24
2023-06-10T09:30:36.226Z,53.24
2023-06-10T09:33:40.492Z,53.87
2023-06-10T09:36:42.747Z,54.04
2023-06-10T09:39:45.024Z,55.99
2023-06-10T09:42:50.172Z,57.71
2023-06-10T09:45:55.264Z,57.62
2023-06-10T09:48:58.836Z,57.37
2023-06-10T09:52:01.015Z,58.52
2023-06-10T09:55:03.812Z,56.42
2023-06-10T09:58:06.154Z,56.08
2023-06-10T10:01:15.660Z,55.55
2023-06-10T10:04:24.830Z,55.15
2023-06-10T10:07:27.012Z,54.60
2023-06-10T10:10:29.402Z,54.27
2023-06-10T10:13:37.179Z,53.76
2023-06-10T10:16:44.273Z,53.78
2023-06-10T10:19:52.078Z,53.77
2023-06-10T10:22:57.926Z,53.55
2023-06-10T10:26:08.701Z,53.45
2023-06-10T10:29:29.138Z,53.31
2023-06-10T10:32:43.916Z,53.13
2023-06-10T10:35:47.472Z,53.15
2023-06-10T10:38:53.165Z,53.40
2023-06-10T10:41:56.227Z,53.17
2023-06-10T10:44:58.739Z,53.27
2023-06-10T10:48:06.667Z,52.23
2023-06-10T10:51:10.036Z,52.13
2023-06-10T10:54:16.063Z,51.78
2023-06-10T10:57:19.565Z,51.50
2023-06-10T11:00:33.040Z,51.84
2023-06-10T11:03:48.026Z,51.90
2023-06-10T11:06:54.848Z,51.56
2023-06-10T11:10:02.910Z,51.17
2023-06-10T11:13:15.089Z,51.17
2023-06-10T11:16:20.810Z,51.39
2023-06-10T11:19:33.790Z,50.60
2023-06-10T11:23:01.960Z,50.00
2023-06-10T11:26:12.131Z,49.98
2023-06-10T11:29:16.734Z,49.72
2023-06-10T11:32:19.098Z,49.35
2023-06-10T11:35:22.460Z,48.95
2023-06-10T11:38:24.749Z,49.18
2023-06-10T11:41:27.965Z,49.24
2023-06-10T11:44:31.077Z,49.20
2023-06-10T11:47:33.344Z,49.58
2023-06-10T11:50:35.637Z,48.80
2023-06-10T11:53:37.924Z,48.71
2023-06-10T11:56:40.127Z,48.97
2023-06-10T11:59:42.403Z,49.04
2023-06-10T12:02:44.750Z,48.74
2023-06-10T12:06:01.470Z,48.22
2023-06-10T12:09:18.436Z,48.15
2023-06-10T12:12:26.618Z,47.74
2023-06-10T12:15:30.077Z,47.22
2023-06-10T12:18:32.254Z,47.02
2023-06-10T12:21:36.487Z,47.15
2023-06-10T12:25:02.549Z,47.00
2023-06-10T12:28:05.331Z,46.36
2023-06-10T12:31:11.362Z,46.88
2023-06-10T12:34:13.535Z,46.80
2023-06-10T12:37:16.445Z,47.05
2023-06-10T12:40:18.838Z,47.42
2023-06-10T12:43:22.201Z,46.42
2023-06-10T12:46:25.540Z,46.95
2023-06-10T12:49:27.968Z,46.78
2023-06-10T12:52:30.299Z,46.34
2023-06-10T12:55:33.539Z,46.31
2023-06-10T12:58:35.740Z,46.49
2023-06-10T13:01:39.177Z,46.40
2023-06-10T13:04:41.552Z,46.76
2023-06-10T13:07:45.495Z,47.16
2023-06-10T13:10:47.680Z,46.94
2023-06-10T13:13:49.944Z,46.58
2023-06-10T13:16:52.215Z,47.35
2023-06-10T13:19:54.467Z,47.33
2023-06-10T13:22:56.858Z,47.02
2023-06-10T13:25:59.252Z,47.33
2023-06-10T13:29:01.407Z,47.51
2023-06-10T13:32:03.651Z,47.89
2023-06-10T13:35:06.498Z,48.34
2023-06-10T13:38:08.758Z,48.19
2023-06-10T13:41:11.240Z,47.51
2023-06-10T13:44:13.417Z,48.04
2023-06-10T13:47:16.185Z,48.33
2023-06-10T13:50:18.472Z,48.53
2023-06-10T13:53:20.748Z,48.39
2023-06-10T13:56:22.923Z,49.70
2023-06-10T13:59:25.093Z,50.25
2023-06-10T14:02:27.430Z,50.64
2023-06-10T14:05:31.886Z,51.73
2023-06-10T14:08:34.549Z,52.26
2023-06-10T14:11:36.704Z,52.81
2023-06-10T14:14:38.897Z,53.02
2023-06-10T14:17:41.134Z,53.11
2023-06-10T14:20:43.393Z,54.43
2023-06-10T14:23:46.579Z,53.45
2023-06-10T14:26:48.901Z,53.63
2023-06-10T14:29:51.126Z,53.61
2023-06-10T14:32:53.431Z,53.33
2023-06-10T14:35:55.808Z,53.11
2023-06-10T14:38:58.294Z,52.11
2023-06-10T14:42:00.538Z,51.40
2023-06-10T14:45:02.851Z,50.79
2023-06-10T14:48:05.843Z,50.77
2023-06-10T14:51:08.034Z,50.83
2023-06-10T14:54:10.393Z,50.78
2023-06-10T14:57:12.567Z,50.86
2023-06-10T15:00:16.553Z,50.64
2023-06-10T15:03:18.755Z,50.46
2023-06-10T15:06:23.784Z,49.50
2023-06-10T15:09:26.130Z,49.55
2023-06-10T15:12:28.996Z,49.57
2023-06-10T15:15:31.147Z,50.17
2023-06-10T15:18:34.244Z,50.42
2023-06-10T15:21:37.395Z,50.46
2023-06-10T15:24:39.939Z,50.54
2023-06-10T15:27:42.132Z,50.11
2023-06-10T15:30:44.426Z,50.41
2023-06-10T15:33:47.696Z,50.26
2023-06-10T15:36:50.285Z,50.21
2023-06-10T15:39:52.470Z,49.96
2023-06-10T15:42:54.646Z,50.29
2023-06-10T15:45:56.845Z,50.31
2023-06-10T15:48:59.126Z,50.90
2023-06-10T15:52:01.354Z,51.23
2023-06-10T15:55:03.836Z,51.50
2023-06-10T15:58:06.095Z,51.74
2023-06-10T16:01:10.298Z,51.81
2023-06-10T16:04:12.796Z,51.94
2023-06-10T16:07:15.013Z,52.30
2023-06-10T16:10:17.281Z,52.83
2023-06-10T16:13:19.560Z,53.21
2023-06-10T16:16:21.817Z,53.36
2023-06-10T16:19:27.853Z,53.67
2023-06-10T16:22:30.084Z,53.89
2023-06-10T16:25:34.843Z,54.30
2023-06-10T16:28:37.137Z,54.26
2023-06-10T16:31:39.368Z,54.88
2023-06-10T16:34:42.855Z,55.02
2023-06-10T16:37:45.675Z,54.88
2023-06-10T16:40:47.911Z,55.26
2023-06-10T16:43:50.145Z,55.43
2023-06-10T16:46:52.441Z,55.61
2023-06-10T16:49:54.686Z,55.68
2023-06-10T16:53:00.270Z,56.13
2023-06-10T16:56:03.422Z,55.79
2023-06-10T16:59:06.937Z,56.16
2023-06-10T17:02:09.289Z,56.36
2023-06-10T17:05:12.225Z,56.44
2023-06-10T17:08:14.724Z,56.72
2023-06-10T17:11:17.053Z,56.89
2023-06-10T17:14:19.305Z,57.06
2023-06-10T17:17:21.739Z,56.91
2023-06-10T17:20:24.052Z,56.86
2023-06-10T17:23:26.361Z,56.75
2023-06-10T17:26:28.614Z,57.00
2023-06-10T17:29:33.519Z,56.72
2023-06-10T17:32:35.854Z,56.85
2023-06-10T17:35:38.471Z,57.09
2023-06-10T17:38:40.809Z,57.31
2023-06-10T17:41:43.058Z,56.81
2023-06-10T17:44:45.443Z,57.28
2023-06-10T17:47:47.677Z,57.48
2023-06-10T17:50:49.908Z,57.55
2023-06-10T17:53:52.268Z,57.76
2023-06-10T17:56:55.243Z,57.60
2023-06-10T17:59:57.550Z,57.86
2023-06-10T18:02:59.886Z,58.30
2023-06-10T18:06:02.408Z,58.13
2023-06-10T18:09:04.652Z,57.94
2023-06-10T18:12:07.623Z,58.10
2023-06-10T18:15:10.695Z,58.41
2023-06-10T18:18:13.117Z,58.23
2023-06-10T18:21:15.578Z,58.54
2023-06-10T18:24:17.921Z,58.57
2023-06-10T18:27:20.211Z,58.25
2023-06-10T18:30:24.809Z,58.45
2023-06-10T18:33:27.933Z,58.46
2023-06-10T18:36:30.353Z,58.52
2023-06-10T18:39:34.221Z,58.70
2023-06-10T18:42:36.405Z,59.08
2023-06-10T18:45:43.322Z,58.85
2023-06-10T18:48:48.209Z,59.13
2023-06-10T18:51:50.552Z,58.84
2023-06-10T18:54:52.796Z,59.26
2023-06-10T18:57:55.036Z,59.38
2023-06-10T19:00:57.682Z,59.59
2023-06-10T19:04:00.999Z,59.60
2023-06-10T19:07:03.536Z,59.60
2023-06-10T19:10:06.526Z,59.98
2023-06-10T19:13:09.121Z,60.24
2023-06-10T19:16:11.269Z,60.03
2023-06-10T19:19:13.564Z,60.10
2023-06-10T19:22:15.742Z,60.17
2023-06-10T19:25:20.149Z,60.65
2023-06-10T19:28:22.296Z,60.40
2023-06-10T19:31:24.554Z,60.44
2023-06-10T19:34:27.325Z,60.69
2023-06-10T19:37:29.493Z,60.30
2023-06-10T19:40:32.722Z,60.75
2023-06-10T19:43:34.969Z,60.96
2023-06-10T19:46:37.205Z,61.33
2023-06-10T19:49:39.373Z,61.52
2023-06-10T19:52:41.575Z,61.34
2023-06-10T19:55:43.815Z,61.66
2023-06-10T19:58:47.485Z,61.83
2023-06-10T20:01:49.755Z,61.81
2023-06-10T20:04:51.980Z,62.13
2023-06-10T20:07:54.154Z,61.98
2023-06-10T20:10:56.375Z,61.86
2023-06-10T20:13:58.603Z,61.69
2023-06-10T20:17:00.749Z,61.40
2023-06-10T20:20:03.335Z,61.59
2023-06-10T20:23:05.581Z,61.44
2023-06-10T20:26:07.750Z,61.40
2023-06-10T20:29:09.971Z,61.09
2023-06-10T20:32:14.838Z,60.72
2023-06-10T20:35:17.108Z,60.59
2023-06-10T20:38:19.372Z,60.46
2023-06-10T20:41:22.720Z,60.38
2023-06-10T20:44:25.036Z,60.06
2023-06-10T20:47:27.214Z,60.06
2023-06-10T20:50:31.751Z,59.79
2023-06-10T20:53:33.911Z,59.50
2023-06-10T20:56:36.281Z,59.68
2023-06-10T20:59:38.500Z,59.39
2023-06-10T21:02:40.756Z,59.79
2023-06-10T21:05:43.016Z,59.56
2023-06-10T21:08:45.473Z,59.80
2023-06-10T21:11:47.625Z,59.61
2023-06-10T21:14:49.789Z,59.83
2023-06-10T21:17:52.080Z,60.17
2023-06-10T21:20:54.387Z,59.71
2023-06-10T21:23:56.784Z,59.74
2023-06-10T21:26:59.860Z,59.82
2023-06-10T21:30:03.140Z,60.16
2023-06-10T21:33:05.848Z,59.90
2023-06-10T21:36:08.059Z,60.04
2023-06-10T21:39:10.381Z,59.67
2023-06-10T21:42:12.827Z,60.01
2023-06-10T21:45:15.067Z,59.93
2023-06-10T21:48:17.267Z,60.37
2023-06-10T21:51:19.633Z,60.21
2023-06-10T21:54:21.802Z,60.16
2023-06-10T21:57:24.118Z,60.10
2023-06-10T22:00:26.349Z,60.13
2023-06-10T22:03:28.688Z,60.43
2023-06-10T22:06:31.980Z,60.35
2023-06-10T22:09:34.206Z,60.60
2023-06-10T22:12:36.623Z,60.55
2023-06-10T22:15:38.787Z,60.31
2023-06-10T22:18:41.326Z,60.44
2023-06-10T22:21:43.522Z,60.15
2023-06-10T22:24:50.620Z,60.20
2023-06-10T22:27:52.907Z,60.04
2023-06-10T22:30:55.592Z,59.90
2023-06-10T22:33:57.927Z,60.05
2023-06-10T22:37:00.165Z,60.17
2023-06-10T22:40:03.689Z,59.88
2023-06-10T22:43:05.922Z,59.73
2023-06-10T22:46:08.128Z,59.49
2023-06-10T22:49:12.727Z,59.66
2023-06-10T22:52:14.932Z,59.47
2023-06-10T22:55:17.193Z,59.19
2023-06-10T22:58:21.210Z,59.19
2023-06-10T23:01:23.554Z,59.23
2023-06-10T23:04:25.850Z,59.26
2023-06-10T23:07:28.139Z,59.39
2023-06-10T23:10:30.464Z,59.07
2023-06-10T23:13:32.666Z,59.19
2023-06-10T23:16:34.931Z,59.15
2023-06-10T23:19:41.754Z,58.78
2023-06-10T23:22:44.120Z,59.18
2023-06-10T23:25:46.370Z,58.75
2023-06-10T23:28:48.551Z,58.80
2023-06-10T23:31:50.947Z,59.17
2023-06-10T23:34:53.245Z,59.16
2023-06-10T23:37:55.660Z,59.21
2023-06-10T23:40:57.882Z,59.19
2023-06-10T23:44:00.108Z,58.90
2023-06-10T23:47:02.338Z,59.02
2023-06-10T23:50:05.520Z,59.22
2023-06-10T23:53:07.805Z,59.30
2023-06-10T23:56:10.097Z,59.22
2023-06-10T23:59:12.276Z,59.09
